createdAt,value
2024-04-14T00:01:41.362Z,8.00
2024-04-14T00:04:08.479Z,8.01
2024-04-14T00:06:35.562Z,7.82
2024-04-14T00:09:02.530Z,7.65
2024-04-14T00:11:29.547Z,7.54
2024-04-14T00:13:56.504Z,7.37
2024-04-14T00:16:23.459Z,7.62
2024-04-14T00:18:51.605Z,7.52
2024-04-14T00:21:19.366Z,6.86
2024-04-14T00:23:46.345Z,6.78
2024-04-14T00:26:13.331Z,6.67
2024-04-14T00:28:40.306Z,6.85
2024-04-14T00:31:07.268Z,6.67
2024-04-14T00:33:34.341Z,6.92
2024-04-14T00:36:01.391Z,6.62
2024-04-14T00:38:28.339Z,7.26
2024-04-14T00:40:55.292Z,7.05
2024-04-14T00:43:22.277Z,6.22
2024-04-14T00:45:49.256Z,6.60
2024-04-14T00:48:16.353Z,6.40
2024-04-14T00:50:43.397Z,6.45
2024-04-14T00:53:10.327Z,6.50
2024-04-14T00:55:37.280Z,7.29
2024-04-14T00:58:04.412Z,7.30
2024-04-14T01:00:31.496Z,8.04
2024-04-14T01:02:58.459Z,8.29
2024-04-14T01:05:25.394Z,8.86
2024-04-14T01:07:52.365Z,7.90
2024-04-14T01:10:19.278Z,7.96
2024-04-14T01:12:46.260Z,7.63
2024-04-14T01:15:13.233Z,7.52
2024-04-14T01:17:42.783Z,6.75
2024-04-14T01:20:09.793Z,6.66
2024-04-14T01:22:36.762Z,6.40
2024-04-14T01:25:03.815Z,5.95
2024-04-14T01:27:30.921Z,5.56
2024-04-14T01:29:57.912Z,5.64
2024-04-14T01:32:24.891Z,5.71
2024-04-14T01:34:51.809Z,5.63
2024-04-14T01:37:18.743Z,5.33
2024-04-14T01:39:45.796Z,5.33
2024-04-14T01:42:12.729Z,5.20
2024-04-14T01:44:39.676Z,5.11
2024-04-14T01:47:06.620Z,5.20
2024-04-14T01:49:33.564Z,5.19
2024-04-14T01:52:00.523Z,5.24
2024-04-14T01:54:27.540Z,5.48
2024-04-14T01:56:54.478Z,5.63
2024-04-14T01:59:21.392Z,5.63
2024-04-14T02:01:48.347Z,5.83
2024-04-14T02:04:15.406Z,5.90
2024-04-14T02:06:42.475Z,5.62
2024-04-14T02:09:09.443Z,5.68
2024-04-14T02:11:36.389Z,5.73
2024-04-14T02:14:03.402Z,5.67
2024-04-14T02:16:30.427Z,5.58
2024-04-14T02:18:57.551Z,5.50
2024-04-14T02:21:24.573Z,5.79
2024-04-14T02:23:51.501Z,5.35
2024-04-14T02:26:18.433Z,5.62
2024-04-14T02:28:45.345Z,5.82
2024-04-14T02:31:12.300Z,5.66
2024-04-14T02:33:39.267Z,5.64
2024-04-14T02:36:06.203Z,5.57
2024-04-14T02:38:33.160Z,5.41
2024-04-14T02:41:00.141Z,5.39
2024-04-14T02:43:27.112Z,5.99
2024-04-14T02:45:54.146Z,5.71
2024-04-14T02:48:21.232Z,5.86
2024-04-14T02:50:48.220Z,6.04
2024-04-14T02:53:15.209Z,5.91
2024-04-14T02:55:42.128Z,5.65
2024-04-14T02:58:09.070Z,5.17
2024-04-14T03:00:36.005Z,5.59
2024-04-14T03:03:03.012Z,5.58
2024-04-14T03:05:30.018Z,5.63
2024-04-14T03:07:56.943Z,5.44
2024-04-14T03:10:23.923Z,5.54
2024-04-14T03:12:50.879Z,5.73
2024-04-14T03:15:17.838Z,5.73
2024-04-14T03:17:44.822Z,5.67
2024-04-14T03:20:11.802Z,5.91
2024-04-14T03:22:38.835Z,5.75
2024-04-14T03:25:05.848Z,5.98
2024-04-14T03:27:32.852Z,5.75
2024-04-14T03:29:59.787Z,5.76
2024-04-14T03:32:26.764Z,5.90
2024-04-14T03:34:53.686Z,5.64
2024-04-14T03:37:20.619Z,5.96
2024-04-14T03:39:47.678Z,5.71
2024-04-14T03:42:14.679Z,5.39
2024-04-14T03:44:41.642Z,5.48
2024-04-14T03:47:08.572Z,5.61
2024-04-14T03:49:35.526Z,5.06
2024-04-14T03:52:02.485Z,5.80
2024-04-14T03:54:29.466Z,5.34
2024-04-14T03:56:56.431Z,5.23
2024-04-14T03:59:23.387Z,5.16
2024-04-14T04:01:50.412Z,5.15
2024-04-14T04:04:17.469Z,5.29
2024-04-14T04:06:44.438Z,5.44
2024-04-14T04:09:11.378Z,5.14
2024-04-14T04:11:38.401Z,5.40
2024-04-14T04:14:05.389Z,5.12
2024-04-14T04:16:32.350Z,4.85
2024-04-14T04:19:07.343Z,4.30
2024-04-14T04:21:41.224Z,4.74
2024-04-14T04:24:08.191Z,4.37
2024-04-14T04:26:35.131Z,4.45
2024-04-14T04:29:02.052Z,4.58
2024-04-14T04:31:28.987Z,4.54
2024-04-14T04:33:55.981Z,4.51
2024-04-14T04:36:22.954Z,4.51
2024-04-14T04:38:49.898Z,4.52
2024-04-14T04:41:16.889Z,4.24
2024-04-14T04:43:43.816Z,4.36
2024-04-14T04:46:10.809Z,4.51
2024-04-14T04:48:37.965Z,4.51
2024-04-14T04:51:05.012Z,4.54
2024-04-14T04:53:32.007Z,4.43
2024-04-14T04:55:58.945Z,4.32
2024-04-14T04:58:25.890Z,4.50
2024-04-14T05:00:52.957Z,4.49
2024-04-14T05:03:19.978Z,4.44
2024-04-14T05:05:46.960Z,4.27
2024-04-14T05:08:13.916Z,4.26
2024-04-14T05:10:40.884Z,4.07
2024-04-14T05:13:07.842Z,4.04
2024-04-14T05:15:34.782Z,4.44
2024-04-14T05:18:01.834Z,4.83
2024-04-14T05:20:28.831Z,5.27
2024-04-14T05:22:55.756Z,5.25
2024-04-14T05:25:22.698Z,5.54
2024-04-14T05:27:49.645Z,5.10
2024-04-14T05:30:16.630Z,5.34
2024-04-14T05:32:43.651Z,5.52
2024-04-14T05:35:10.637Z,5.51
2024-04-14T05:37:37.579Z,5.88
2024-04-14T05:40:04.529Z,5.79
2024-04-14T05:42:31.604Z,5.69
2024-04-14T05:44:58.540Z,6.11
2024-04-14T05:47:25.512Z,5.98
2024-04-14T05:49:52.886Z,6.06
2024-04-14T05:52:19.866Z,6.15
2024-04-14T05:54:46.863Z,6.02
2024-04-14T05:57:13.864Z,5.85
2024-04-14T05:59:40.861Z,6.25
2024-04-14T06:02:07.848Z,6.32
2024-04-14T06:04:34.926Z,5.90
2024-04-14T06:07:02.025Z,6.00
2024-04-14T06:09:29.074Z,6.39
2024-04-14T06:11:56.011Z,6.12
2024-04-14T06:14:22.938Z,6.01
2024-04-14T06:16:50.067Z,6.29
2024-04-14T06:19:18.555Z,6.01
2024-04-14T06:21:45.540Z,6.22
2024-04-14T06:24:12.530Z,5.69
2024-04-14T06:26:39.485Z,5.66
2024-04-14T06:29:06.412Z,5.44
2024-04-14T06:31:33.358Z,5.45
2024-04-14T06:34:00.290Z,5.92
2024-04-14T06:36:27.248Z,5.75
2024-04-14T06:38:54.209Z,5.47
2024-04-14T06:41:21.150Z,5.87
2024-04-14T06:43:48.050Z,5.81
2024-04-14T06:46:14.991Z,5.46
2024-04-14T06:48:41.972Z,5.18
2024-04-14T06:51:08.929Z,5.23
2024-04-14T06:53:35.861Z,4.94
2024-04-14T06:56:02.858Z,4.89
2024-04-14T06:58:29.783Z,4.64
2024-04-14T07:00:56.832Z,4.21
2024-04-14T07:03:23.853Z,4.36
2024-04-14T07:05:50.781Z,4.24
2024-04-14T07:08:17.764Z,3.96
2024-04-14T07:10:44.747Z,4.04
2024-04-14T07:13:11.691Z,4.52
2024-04-14T07:15:38.632Z,4.26
2024-04-14T07:18:05.680Z,4.48
2024-04-14T07:20:32.644Z,4.86
2024-04-14T07:22:59.586Z,4.48
2024-04-14T07:25:26.498Z,4.34
2024-04-14T07:27:53.473Z,4.30
2024-04-14T07:30:20.440Z,4.24
2024-04-14T07:32:47.484Z,5.08
2024-04-14T07:35:14.484Z,4.87
2024-04-14T07:37:41.476Z,4.85
2024-04-14T07:40:08.480Z,6.20
2024-04-14T07:42:35.476Z,7.50
2024-04-14T07:45:02.499Z,12.48
2024-04-14T07:47:29.549Z,20.64
2024-04-14T07:49:56.522Z,46.58
2024-04-14T07:52:23.478Z,22.12
2024-04-14T07:54:50.515Z,24.41
2024-04-14T07:57:17.548Z,15.86
2024-04-14T07:59:46.534Z,7.19
2024-04-14T08:02:13.702Z,6.97
2024-04-14T08:04:40.761Z,7.48
2024-04-14T08:07:07.776Z,7.36
2024-04-14T08:09:34.863Z,7.56
2024-04-14T08:12:01.904Z,7.68
2024-04-14T08:14:28.891Z,7.13
2024-04-14T08:16:55.910Z,7.18
2024-04-14T08:19:22.892Z,7.41
2024-04-14T08:21:49.918Z,7.25
2024-04-14T08:24:16.879Z,6.41
2024-04-14T08:26:43.828Z,5.90
2024-04-14T08:29:10.760Z,6.14
2024-04-14T08:31:37.718Z,5.45
2024-04-14T08:34:08.493Z,5.91
2024-04-14T08:36:36.228Z,5.64
2024-04-14T08:39:03.149Z,4.65
2024-04-14T08:41:30.098Z,4.35
2024-04-14T08:43:57.046Z,3.96
2024-04-14T08:46:24.004Z,4.15
2024-04-14T08:48:52.041Z,4.59
2024-04-14T08:51:19.184Z,4.15
2024-04-14T08:53:46.107Z,4.42
2024-04-14T08:56:13.056Z,4.03
2024-04-14T08:58:40.006Z,3.91
2024-04-14T09:01:07.037Z,3.60
2024-04-14T09:03:34.232Z,3.23
2024-04-14T09:06:01.328Z,3.13
2024-04-14T09:08:28.272Z,3.57
2024-04-14T09:10:55.285Z,3.51
2024-04-14T09:13:22.259Z,3.77
2024-04-14T09:15:49.330Z,3.42
2024-04-14T09:18:16.314Z,3.61
2024-04-14T09:20:43.273Z,3.83
2024-04-14T09:23:10.199Z,3.45
2024-04-14T09:25:37.139Z,3.41
2024-04-14T09:28:04.189Z,3.47
2024-04-14T09:30:31.195Z,3.62
2024-04-14T09:32:58.200Z,3.33
2024-04-14T09:35:25.208Z,3.50
2024-04-14T09:37:52.145Z,3.33
2024-04-14T09:40:19.073Z,3.22
2024-04-14T09:42:46.085Z,3.45
2024-04-14T09:45:13.064Z,3.73
2024-04-14T09:47:40.046Z,3.40
2024-04-14T09:50:07.012Z,3.45
2024-04-14T09:52:33.949Z,3.13
2024-04-14T09:55:00.964Z,3.88
2024-04-14T09:57:27.955Z,3.54
2024-04-14T09:59:54.934Z,3.65
2024-04-14T10:02:22.862Z,3.66
2024-04-14T10:04:49.869Z,3.27
2024-04-14T10:07:16.845Z,3.46
2024-04-14T10:09:43.836Z,3.40
2024-04-14T10:12:10.808Z,3.52
2024-04-14T10:14:37.750Z,3.47
2024-04-14T10:17:04.724Z,3.71
2024-04-14T10:19:31.693Z,3.55
2024-04-14T10:21:58.702Z,3.49
2024-04-14T10:24:25.640Z,3.73
2024-04-14T10:26:52.558Z,3.75
2024-04-14T10:29:19.518Z,3.99
2024-04-14T10:31:46.437Z,3.87
2024-04-14T10:34:13.451Z,3.78
2024-04-14T10:36:40.459Z,3.55
2024-04-14T10:39:07.468Z,3.46
2024-04-14T10:41:34.424Z,3.11
2024-04-14T10:44:01.400Z,3.14
2024-04-14T10:46:28.331Z,3.40
2024-04-14T10:48:55.319Z,4.98
2024-04-14T10:51:22.254Z,3.90
2024-04-14T10:53:49.193Z,3.48
2024-04-14T10:56:16.135Z,3.74
2024-04-14T10:58:43.112Z,3.13
2024-04-14T11:01:10.136Z,3.32
2024-04-14T11:03:37.215Z,3.23
2024-04-14T11:06:04.243Z,3.18
2024-04-14T11:08:31.196Z,2.91
2024-04-14T11:10:58.150Z,3.64
2024-04-14T11:13:25.092Z,3.14
2024-04-14T11:15:52.085Z,3.24
2024-04-14T11:18:19.128Z,2.78
2024-04-14T11:20:46.356Z,3.08
2024-04-14T11:23:13.261Z,3.07
2024-04-14T11:25:40.240Z,3.36
2024-04-14T11:28:07.234Z,3.45
2024-04-14T11:30:34.353Z,3.38
2024-04-14T11:33:01.396Z,2.90
2024-04-14T11:35:28.365Z,2.94
2024-04-14T11:37:55.283Z,3.14
2024-04-14T11:40:22.262Z,2.65
2024-04-14T11:42:49.292Z,3.02
2024-04-14T11:45:16.263Z,2.94
2024-04-14T11:47:43.213Z,2.91
2024-04-14T11:50:10.170Z,2.79
2024-04-14T11:52:37.099Z,3.11
2024-04-14T11:55:04.087Z,3.10
2024-04-14T11:57:31.166Z,3.05
2024-04-14T11:59:58.142Z,2.92
2024-04-14T12:02:25.161Z,2.92
2024-04-14T12:04:52.146Z,3.39
2024-04-14T12:07:19.113Z,3.42
2024-04-14T12:09:46.116Z,3.17
2024-04-14T12:12:13.094Z,2.87
2024-04-14T12:14:40.101Z,3.04
2024-04-14T12:17:07.097Z,3.11
2024-04-14T12:19:34.027Z,3.04
2024-04-14T12:22:01.005Z,2.85
2024-04-14T12:24:27.964Z,3.33
2024-04-14T12:26:54.932Z,3.36
2024-04-14T12:29:21.850Z,2.95
2024-04-14T12:31:48.794Z,3.22
2024-04-14T12:34:15.839Z,3.12
2024-04-14T12:36:42.997Z,2.72
2024-04-14T12:39:14.890Z,3.00
2024-04-14T12:41:47.749Z,7.36
2024-04-14T12:44:14.668Z,5.94
2024-04-14T12:46:41.721Z,3.18
2024-04-14T12:49:08.734Z,2.97
2024-04-14T12:51:35.804Z,3.44
2024-04-14T12:54:02.815Z,3.18
2024-04-14T12:56:29.766Z,3.53
2024-04-14T12:58:56.733Z,3.23
2024-04-14T13:01:23.728Z,2.97
2024-04-14T13:03:50.742Z,2.92
2024-04-14T13:06:17.747Z,2.96
2024-04-14T13:08:44.699Z,3.00
2024-04-14T13:11:11.755Z,3.16
2024-04-14T13:13:38.705Z,3.37
2024-04-14T13:16:05.825Z,3.21
2024-04-14T13:18:32.871Z,3.10
2024-04-14T13:20:59.817Z,3.18
2024-04-14T13:23:26.765Z,3.09
2024-04-14T13:25:53.711Z,3.49
2024-04-14T13:28:20.655Z,3.48
2024-04-14T13:30:47.628Z,3.20
2024-04-14T13:33:14.662Z,3.21
2024-04-14T13:35:45.101Z,2.96
2024-04-14T13:38:12.835Z,2.92
2024-04-14T13:40:39.764Z,2.96
2024-04-14T13:43:06.749Z,3.32
2024-04-14T13:45:33.714Z,3.21
2024-04-14T13:48:00.796Z,3.00
2024-04-14T13:50:27.786Z,3.42
2024-04-14T13:52:54.730Z,3.11
2024-04-14T13:55:22.639Z,3.18
2024-04-14T13:57:49.983Z,3.27
2024-04-14T14:00:16.966Z,3.03
2024-04-14T14:02:43.959Z,3.15
2024-04-14T14:05:10.531Z,2.98
2024-04-14T14:07:37.068Z,3.09
2024-04-14T14:10:03.677Z,3.17
2024-04-14T14:12:30.270Z,3.29
2024-04-14T14:14:56.816Z,3.00
2024-04-14T14:17:23.359Z,3.40
2024-04-14T14:19:49.932Z,5.50
2024-04-14T14:22:16.552Z,3.83
2024-04-14T14:24:43.173Z,6.04
2024-04-14T14:27:09.744Z,3.89
2024-04-14T14:29:36.295Z,4.39
2024-04-14T14:32:02.844Z,3.56
2024-04-14T14:34:29.435Z,3.22
2024-04-14T14:36:56.057Z,3.23
2024-04-14T14:39:22.661Z,3.40
2024-04-14T14:41:49.220Z,3.36
2024-04-14T14:44:15.758Z,3.25
2024-04-14T14:46:42.340Z,3.18
2024-04-14T14:49:08.984Z,3.28
2024-04-14T14:51:35.598Z,3.37
2024-04-14T14:54:02.239Z,3.12
2024-04-14T14:56:28.807Z,3.31
2024-04-14T14:58:55.354Z,3.12
2024-04-14T15:01:22.086Z,2.84
2024-04-14T15:03:49.167Z,3.00
2024-04-14T15:06:16.106Z,2.81
2024-04-14T15:08:43.121Z,2.92
2024-04-14T15:11:10.085Z,3.01
2024-04-14T15:13:37.027Z,3.11
2024-04-14T15:16:04.060Z,3.01
2024-04-14T15:18:31.075Z,3.14
2024-04-14T15:20:57.986Z,3.33
2024-04-14T15:23:24.919Z,3.00
2024-04-14T15:25:51.851Z,3.03
2024-04-14T15:28:25.292Z,3.00
2024-04-14T15:30:57.232Z,3.37
2024-04-14T15:33:24.294Z,2.93
2024-04-14T15:35:51.218Z,3.21
2024-04-14T15:38:18.147Z,3.57
2024-04-14T15:40:45.082Z,3.24
2024-04-14T15:43:12.076Z,3.45
2024-04-14T15:45:39.250Z,3.48
2024-04-14T15:48:06.292Z,3.46
2024-04-14T15:50:33.238Z,3.29
2024-04-14T15:53:00.184Z,3.19
2024-04-14T15:55:27.121Z,3.20
2024-04-14T15:57:56.020Z,3.13
2024-04-14T16:00:23.186Z,3.26
2024-04-14T16:02:50.237Z,3.31
2024-04-14T16:05:17.262Z,3.29
2024-04-14T16:07:44.214Z,3.55
2024-04-14T16:10:11.415Z,4.34
2024-04-14T16:12:38.506Z,6.18
2024-04-14T16:15:05.481Z,4.89
2024-04-14T16:17:32.520Z,4.08
2024-04-14T16:19:59.532Z,3.88
2024-04-14T16:22:26.471Z,3.53
2024-04-14T16:24:53.433Z,3.71
2024-04-14T16:27:20.362Z,3.27
2024-04-14T16:29:47.288Z,3.43
2024-04-14T16:32:14.270Z,3.28
2024-04-14T16:34:41.196Z,3.42
2024-04-14T16:37:08.202Z,3.64
2024-04-14T16:39:35.258Z,3.61
2024-04-14T16:42:02.258Z,3.79
2024-04-14T16:44:29.206Z,4.46
2024-04-14T16:46:56.140Z,4.52
2024-04-14T16:49:23.134Z,4.53
2024-04-14T16:51:50.191Z,6.08
2024-04-14T16:54:17.190Z,4.81
2024-04-14T16:56:44.129Z,4.51
2024-04-14T16:59:11.075Z,5.59
2024-04-14T17:01:38.184Z,5.94
2024-04-14T17:04:05.498Z,4.59
2024-04-14T17:06:32.545Z,4.20
2024-04-14T17:08:59.541Z,4.51
2024-04-14T17:11:26.487Z,5.08
2024-04-14T17:13:53.459Z,4.85
2024-04-14T17:16:20.441Z,4.52
2024-04-14T17:18:47.501Z,4.32
2024-04-14T17:21:14.463Z,4.44
2024-04-14T17:23:41.543Z,4.48
2024-04-14T17:26:08.760Z,4.48
2024-04-14T17:28:35.685Z,4.33
2024-04-14T17:31:02.661Z,4.16
2024-04-14T17:33:29.691Z,4.26
2024-04-14T17:35:56.642Z,4.24
2024-04-14T17:38:23.577Z,4.94
2024-04-14T17:40:50.539Z,5.61
2024-04-14T17:43:17.539Z,6.14
2024-04-14T17:45:44.546Z,5.26
2024-04-14T17:48:11.550Z,5.19
2024-04-14T17:50:38.556Z,5.17
2024-04-14T17:53:05.483Z,5.10
2024-04-14T17:55:32.416Z,5.02
2024-04-14T17:57:59.400Z,4.52
2024-04-14T18:00:26.352Z,4.44
2024-04-14T18:02:53.344Z,4.16
2024-04-14T18:05:20.295Z,4.41
2024-04-14T18:07:47.243Z,4.20
2024-04-14T18:10:14.218Z,3.89
2024-04-14T18:12:41.208Z,4.28
2024-04-14T18:15:08.262Z,4.39
2024-04-14T18:17:35.237Z,5.86
2024-04-14T18:20:02.230Z,4.93
2024-04-14T18:22:29.147Z,4.22
2024-04-14T18:24:56.113Z,3.84
2024-04-14T18:27:23.068Z,3.91
2024-04-14T18:29:50.004Z,3.94
2024-04-14T18:32:17.012Z,4.06
2024-04-14T18:34:43.980Z,4.36
2024-04-14T18:37:10.948Z,4.41
2024-04-14T18:39:38.009Z,5.09
2024-04-14T18:42:05.018Z,5.38
2024-04-14T18:44:31.938Z,5.46
2024-04-14T18:46:58.873Z,5.48
2024-04-14T18:49:25.812Z,5.74
2024-04-14T18:51:52.768Z,5.88
2024-04-14T18:54:19.698Z,6.06
2024-04-14T18:56:46.641Z,6.09
2024-04-14T18:59:13.594Z,6.07
2024-04-14T19:01:40.698Z,6.00
2024-04-14T19:04:07.761Z,5.28
2024-04-14T19:06:34.797Z,5.59
2024-04-14T19:09:01.747Z,6.33
2024-04-14T19:11:28.675Z,5.83
2024-04-14T19:13:55.668Z,5.62
2024-04-14T19:16:22.631Z,5.66
2024-04-14T19:18:49.588Z,5.71
2024-04-14T19:21:16.571Z,5.97
2024-04-14T19:23:43.511Z,5.78
2024-04-14T19:26:11.291Z,6.36
2024-04-14T19:28:38.330Z,7.08
2024-04-14T19:31:05.265Z,6.49
2024-04-14T19:33:32.239Z,6.77
2024-04-14T19:35:59.205Z,7.37
2024-04-14T19:38:26.383Z,6.83
2024-04-14T19:40:53.552Z,5.72
2024-04-14T19:43:20.496Z,5.79
2024-04-14T19:45:47.482Z,5.89
2024-04-14T19:48:14.473Z,7.82
2024-04-14T19:50:41.421Z,9.42
2024-04-14T19:53:08.380Z,9.92
2024-04-14T19:55:35.427Z,10.09
2024-04-14T19:58:02.423Z,10.09
2024-04-14T20:00:29.437Z,9.34
2024-04-14T20:02:56.360Z,8.66
2024-04-14T20:05:23.308Z,8.04
2024-04-14T20:07:50.441Z,8.15
2024-04-14T20:10:17.571Z,7.11
2024-04-14T20:12:44.628Z,6.34
2024-04-14T20:15:11.630Z,6.09
2024-04-14T20:17:38.666Z,6.34
2024-04-14T20:20:05.698Z,6.63
2024-04-14T20:22:32.639Z,6.37
2024-04-14T20:24:59.674Z,6.06
2024-04-14T20:27:29.061Z,6.05
2024-04-14T20:29:57.304Z,6.38
2024-04-14T20:32:24.322Z,5.93
2024-04-14T20:34:51.298Z,5.68
2024-04-14T20:37:18.286Z,5.39
2024-04-14T20:39:45.319Z,5.36
2024-04-14T20:42:12.348Z,5.44
2024-04-14T20:44:39.262Z,5.91
2024-04-14T20:47:06.181Z,5.75
2024-04-14T20:49:33.255Z,5.36
2024-04-14T20:52:00.227Z,5.74
2024-04-14T20:54:27.224Z,5.61
2024-04-14T20:56:54.160Z,5.36
2024-04-14T20:59:21.128Z,5.02
2024-04-14T21:01:48.184Z,4.75
2024-04-14T21:04:15.231Z,4.31
2024-04-14T21:06:42.272Z,5.23
2024-04-14T21:09:09.278Z,5.56
2024-04-14T21:11:36.282Z,4.40
2024-04-14T21:14:03.188Z,4.12
2024-04-14T21:16:30.127Z,4.88
2024-04-14T21:18:57.120Z,4.71
2024-04-14T21:21:24.120Z,5.17
2024-04-14T21:23:51.049Z,5.16
2024-04-14T21:26:17.993Z,5.76
2024-04-14T21:28:44.954Z,4.94
2024-04-14T21:31:11.916Z,5.03
2024-04-14T21:33:39.110Z,6.13
2024-04-14T21:36:06.160Z,5.52
2024-04-14T21:38:33.100Z,4.93
2024-04-14T21:41:00.057Z,5.07
2024-04-14T21:43:27.004Z,5.29
2024-04-14T21:45:53.955Z,5.01
2024-04-14T21:48:21.041Z,4.46
2024-04-14T21:50:48.030Z,4.93
2024-04-14T21:53:14.979Z,4.51
2024-04-14T21:55:41.938Z,4.92
2024-04-14T21:58:08.936Z,5.29
2024-04-14T22:00:35.929Z,6.03
2024-04-14T22:03:02.867Z,6.35
2024-04-14T22:05:29.821Z,6.43
2024-04-14T22:07:56.742Z,6.20
2024-04-14T22:10:23.770Z,7.09
2024-04-14T22:12:50.759Z,6.64
2024-04-14T22:15:17.691Z,6.57
2024-04-14T22:17:44.674Z,6.15
2024-04-14T22:20:11.623Z,5.59
2024-04-14T22:22:38.568Z,5.67
2024-04-14T22:25:05.656Z,5.74
2024-04-14T22:27:32.635Z,5.20
2024-04-14T22:29:59.579Z,4.51
2024-04-14T22:32:26.576Z,4.47
2024-04-14T22:34:53.541Z,4.62
2024-04-14T22:37:20.485Z,5.13
2024-04-14T22:39:47.434Z,4.73
2024-04-14T22:42:14.473Z,4.45
2024-04-14T22:44:41.402Z,4.30
2024-04-14T22:47:08.381Z,4.17
2024-04-14T22:49:35.334Z,4.02
2024-04-14T22:52:03.283Z,4.11
2024-04-14T22:54:30.282Z,4.13
2024-04-14T22:56:57.212Z,3.93
2024-04-14T22:59:24.159Z,4.37
2024-04-14T23:01:51.141Z,4.34
2024-04-14T23:04:18.246Z,4.37
2024-04-14T23:06:45.441Z,4.49
2024-04-14T23:09:12.417Z,4.63
2024-04-14T23:11:39.404Z,4.66
2024-04-14T23:14:06.358Z,4.59
2024-04-14T23:16:33.313Z,4.13
2024-04-14T23:19:00.382Z,3.88
2024-04-14T23:21:27.344Z,3.95
2024-04-14T23:23:54.274Z,4.03
2024-04-14T23:26:21.254Z,3.99
2024-04-14T23:28:48.200Z,3.79
2024-04-14T23:31:15.146Z,3.84
2024-04-14T23:33:42.157Z,3.88
2024-04-14T23:36:09.130Z,3.87
2024-04-14T23:38:36.083Z,3.74
2024-04-14T23:41:03.063Z,3.40
2024-04-14T23:43:30.002Z,3.53
2024-04-14T23:45:57.008Z,3.47
2024-04-14T23:48:23.971Z,3.52
2024-04-14T23:50:50.943Z,3.58
2024-04-14T23:53:17.874Z,3.71
2024-04-14T23:55:44.829Z,3.66
2024-04-14T23:58:11.845Z,4.02
